Time;durP1;ratioP1;P1;durP2;ratioP2;P2;SDS_P1;SDS_P2;PMS_P1;PMS_P2;Temp;Humidity;BMP_temperature;BMP_pressure;BME280_temperature;BME280_humidity;BME280_pressure;Samples;Min_cycle;Max_cycle;Signal;HPM_P1;HPM_P2
2022/06/28 00:01:21;;;;;;;4.93;3.97;;;;;;;21.21;78.46;100987.28;4987265;28;20074;-48
2022/06/28 00:03:48;;;;;;;5.25;4.70;;;;;;;21.17;78.79;100973.34;4998672;28;20073;-50
2022/06/28 00:06:16;;;;;;;4.90;4.40;;;;;;;21.17;79.41;100970.66;4996838;28;20058;-52
2022/06/28 00:08:43;;;;;;;7.35;5.68;;;;;;;21.12;80.73;100951.53;5002113;28;20065;-52
2022/06/28 00:11:10;;;;;;;5.60;4.28;;;;;;;21.14;80.49;100938.00;5000573;28;20056;-46
2022/06/28 00:13:38;;;;;;;6.97;4.68;;;;;;;21.16;80.64;100939.53;4996335;28;20443;-48
2022/06/28 00:16:05;;;;;;;5.70;4.20;;;;;;;21.17;81.57;100943.91;4987387;28;20644;-50
2022/06/28 00:18:37;;;;;;;11.70;5.20;;;;;;;21.10;82.46;100932.09;4995380;28;20411;-47
2022/06/28 00:21:08;;;;;;;7.82;5.40;;;;;;;21.08;83.67;100944.81;4988642;28;20045;-49
2022/06/28 00:23:37;;;;;;;9.93;6.38;;;;;;;20.91;85.27;100958.97;4990513;28;20353;-49
2022/06/28 00:26:05;;;;;;;9.10;6.68;;;;;;;20.76;87.44;100969.34;4992154;28;20058;-50
2022/06/28 00:28:32;;;;;;;8.75;6.47;;;;;;;20.72;88.61;100971.47;4994734;28;20528;-50
2022/06/28 00:31:00;;;;;;;7.65;6.60;;;;;;;20.68;89.70;100972.75;4983079;28;20050;-49
2022/06/28 00:33:27;;;;;;;8.55;6.95;;;;;;;20.57;91.38;100961.38;4996211;28;20046;-52
2022/06/28 00:35:55;;;;;;;9.38;7.68;;;;;;;20.53;91.73;100976.88;4986917;28;20055;-49
2022/06/28 00:38:22;;;;;;;8.10;7.00;;;;;;;20.38;92.86;100976.47;4987584;28;20061;-50
2022/06/28 00:40:51;;;;;;;8.13;7.32;;;;;;;20.31;93.73;100983.41;4990583;28;20050;-49
2022/06/28 00:43:20;;;;;;;8.52;7.70;;;;;;;20.23;95.43;100978.78;5000403;28;20057;-47
2022/06/28 00:45:47;;;;;;;9.55;8.52;;;;;;;20.21;95.14;100988.75;4990746;28;20061;-55
2022/06/28 00:48:17;;;;;;;8.65;7.85;;;;;;;20.23;95.18;100986.81;4990911;28;20058;-50
2022/06/28 00:50:46;;;;;;;9.10;8.23;;;;;;;20.27;95.74;100987.38;4987757;28;20042;-49
2022/06/28 00:53:15;;;;;;;8.93;8.13;;;;;;;20.27;96.07;100984.69;4984659;28;20698;-54
2022/06/28 00:55:43;;;;;;;9.20;8.40;;;;;;;20.22;96.66;100992.31;4986197;28;20069;-52
2022/06/28 00:58:12;;;;;;;15.18;7.75;;;;;;;20.22;97.14;101013.69;4985130;28;20050;-49
2022/06/28 01:00:45;;;;;;;10.18;9.20;;;;;;;20.16;97.47;101011.56;4983125;28;20042;-52
2022/06/28 01:03:15;;;;;;;12.48;8.57;;;;;;;20.08;98.62;101014.09;4991153;28;20514;-49
2022/06/28 01:05:42;;;;;;;9.60;8.70;;;;;;;20.08;98.91;101014.09;4983935;28;20403;-48
2022/06/28 01:08:10;;;;;;;10.70;9.68;;;;;;;20.09;99.08;101005.97;4981462;28;20068;-52
2022/06/28 01:10:38;;;;;;;10.43;9.10;;;;;;;20.06;99.25;100995.56;4988093;28;20507;-48
2022/06/28 01:13:06;;;;;;;10.75;9.80;;;;;;;20.01;99.05;100995.13;4989181;28;20047;-51
2022/06/28 01:15:33;;;;;;;10.18;9.20;;;;;;;20.02;99.00;100991.47;4989354;28;20050;-52
2022/06/28 01:18:01;;;;;;;10.00;9.05;;;;;;;19.99;99.27;100989.06;4982399;28;20062;-52
2022/06/28 01:20:28;;;;;;;10.10;9.20;;;;;;;19.94;99.68;100983.31;4990112;28;20065;-49
2022/06/28 01:22:56;;;;;;;12.85;9.90;;;;;;;19.94;100.00;100994.00;4979174;28;20046;-52
2022/06/28 01:25:24;;;;;;;11.02;9.93;;;;;;;19.91;99.99;101005.00;4986994;28;20047;-55
2022/06/28 01:27:52;;;;;;;10.57;9.55;;;;;;;19.81;100.00;101007.66;4984321;28;20062;-48
2022/06/28 01:30:19;;;;;;;13.55;10.18;;;;;;;19.77;100.00;101024.09;4986115;28;20375;-49
2022/06/28 01:32:47;;;;;;;11.25;10.13;;;;;;;19.72;100.00;101022.72;4984772;28;20065;-49
2022/06/28 01:35:14;;;;;;;10.57;9.57;;;;;;;19.70;100.00;101034.50;4986540;28;20073;-52
2022/06/28 01:37:41;;;;;;;11.80;10.60;;;;;;;19.68;100.00;101032.00;4983995;28;20507;-50
2022/06/28 01:40:08;;;;;;;12.13;11.00;;;;;;;19.66;100.00;101033.94;4987364;28;20066;-49
2022/06/28 01:42:36;;;;;;;11.23;10.23;;;;;;;19.58;100.00;101025.75;4987492;28;20061;-48
2022/06/28 01:48:56;;;;;;;12.07;9.95;;;;;;;19.47;100.00;101045.41;4977911;28;20342;-52
2022/06/28 01:51:23;;;;;;;11.15;10.07;;;;;;;19.51;100.00;101047.81;4983726;28;20042;-54
2022/06/28 01:53:50;;;;;;;11.93;10.77;;;;;;;19.47;100.00;101049.91;4987534;28;20573;-48
2022/06/28 01:56:17;;;;;;;11.80;10.73;;;;;;;19.46;100.00;101042.91;4988487;28;20061;-52
2022/06/28 01:58:45;;;;;;;10.52;9.30;;;;;;;19.47;100.00;101040.06;4991273;28;20060;-49
2022/06/28 02:01:13;;;;;;;11.25;10.05;;;;;;;19.49;100.00;101034.59;4986619;28;20579;-51
2022/06/28 02:03:43;;;;;;;11.18;10.07;;;;;;;19.49;100.00;101053.28;4982467;28;20054;-47
2022/06/28 02:06:11;;;;;;;12.13;10.82;;;;;;;19.49;100.00;101053.28;5009523;23;20352;-53
2022/06/28 02:08:38;;;;;;;11.55;10.48;;;;;;;19.47;100.00;101065.94;4988819;28;20058;-49
2022/06/28 02:11:05;;;;;;;10.32;9.23;;;;;;;19.44;100.00;101066.19;4991082;28;20398;-49
2022/06/28 02:13:33;;;;;;;11.10;10.00;;;;;;;19.44;100.00;101077.72;4991821;28;20062;-49
2022/06/28 02:16:02;;;;;;;11.15;10.15;;;;;;;19.41;100.00;101083.34;4984823;28;20045;-51
2022/06/28 02:18:31;;;;;;;12.40;11.10;;;;;;;19.40;100.00;101080.81;4992145;28;20053;-51
2022/06/28 02:20:58;;;;;;;11.20;10.30;;;;;;;19.36;100.00;101079.38;4987403;28;20054;-55
2022/06/28 02:23:25;;;;;;;10.95;10.00;;;;;;;19.34;100.00;101070.69;4985876;28;20065;-49
2022/06/28 02:25:52;;;;;;;10.85;9.77;;;;;;;19.37;100.00;101073.94;4988663;28;20057;-48
2022/06/28 02:28:19;;;;;;;10.25;9.38;;;;;;;19.37;100.00;101078.44;4993284;28;20172;-50
2022/06/28 02:30:46;;;;;;;11.20;10.10;;;;;;;19.41;100.00;101094.03;4996255;28;20050;-51
2022/06/28 02:33:13;;;;;;;10.27;9.30;;;;;;;19.43;100.00;101117.91;4994899;28;20077;-51
2022/06/28 02:41:12;;;;;;;10.23;9.25;;;;;;;19.28;100.00;101132.63;4989647;28;20297;-51
2022/06/28 02:43:39;;;;;;;9.57;8.68;;;;;;;19.31;100.00;101129.66;4986001;28;20876;-48
2022/06/28 02:46:06;;;;;;;9.75;8.85;;;;;;;19.34;100.00;101145.44;4988403;28;20054;-50
2022/06/28 02:48:33;;;;;;;12.52;10.32;;;;;;;19.28;100.00;101151.31;4995267;28;20407;-47
2022/06/28 02:51:01;;;;;;;10.35;9.45;;;;;;;19.26;100.00;101158.59;4982313;28;20042;-48
2022/06/28 02:53:28;;;;;;;9.98;9.07;;;;;;;19.22;100.00;101158.84;4988514;28;20042;-49
2022/06/28 02:55:55;;;;;;;9.38;8.57;;;;;;;19.18;100.00;101161.91;4988690;28;20061;-53
2022/06/28 02:58:22;;;;;;;9.30;8.43;;;;;;;19.12;100.00;101171.31;4990849;28;20046;-49
2022/06/28 03:00:49;;;;;;;8.73;7.82;;;;;;;19.15;100.00;101170.22;4982979;28;20090;-51
2022/06/28 03:03:16;;;;;;;9.30;7.63;;;;;;;19.14;100.00;101168.53;4999287;28;20676;-49
2022/06/28 03:05:44;;;;;;;8.52;7.68;;;;;;;19.16;100.00;101178.06;4982607;28;20067;-50
2022/06/28 03:08:11;;;;;;;8.85;8.00;;;;;;;19.21;100.00;101193.69;4987835;28;20522;-49
2022/06/28 03:10:38;;;;;;;8.35;7.55;;;;;;;19.19;100.00;101201.00;4982383;28;20065;-49
2022/06/28 03:13:05;;;;;;;10.90;8.15;;;;;;;19.14;100.00;101206.75;4987290;28;20053;-49
2022/06/28 03:15:32;;;;;;;7.57;6.78;;;;;;;19.17;100.00;101216.28;4994173;28;20514;-50
2022/06/28 03:17:59;;;;;;;9.20;6.72;;;;;;;19.19;100.00;101222.34;5002777;28;20132;-49
2022/06/28 03:20:28;;;;;;;10.15;7.13;;;;;;;19.19;100.00;101222.34;4991544;28;20050;-51
2022/06/28 03:22:56;;;;;;;8.85;7.97;;;;;;;19.17;100.00;101237.63;4990758;28;20061;-50
2022/06/28 03:25:23;;;;;;;8.45;7.55;;;;;;;19.20;100.00;101237.38;4993328;28;20065;-51
2022/06/28 03:27:50;;;;;;;7.82;7.03;;;;;;;19.17;100.00;101249.16;4997699;28;20061;-51
2022/06/28 03:30:17;;;;;;;8.05;7.22;;;;;;;19.17;100.00;101253.66;4994040;28;20615;-49
2022/06/28 03:32:44;;;;;;;8.70;7.50;;;;;;;19.16;100.00;101259.97;4993435;28;20054;-52
2022/06/28 03:35:12;;;;;;;9.77;7.55;;;;;;;19.14;100.00;101260.13;4995771;28;20069;-50
2022/06/28 03:37:39;;;;;;;7.50;6.53;;;;;;;19.08;100.00;101251.75;4996578;28;20134;-52
2022/06/28 03:40:07;;;;;;;8.73;7.65;;;;;;;19.04;100.00;101258.34;4990896;28;20062;-49
2022/06/28 03:42:34;;;;;;;7.50;6.80;;;;;;;18.99;100.00;101261.41;4994325;28;20274;-50
2022/06/28 03:45:01;;;;;;;9.60;7.72;;;;;;;18.94;100.00;101251.09;4993274;28;20060;-50
2022/06/28 03:47:29;;;;;;;9.93;7.15;;;;;;;18.92;100.00;101250.41;5012869;28;20054;-48
2022/06/28 03:49:56;;;;;;;7.68;6.55;;;;;;;18.92;100.00;101250.41;4995140;28;20061;-52
2022/06/28 03:52:28;;;;;;;7.43;6.72;;;;;;;18.92;100.00;101252.22;4995580;28;20041;-48
2022/06/28 03:54:59;;;;;;;8.68;7.45;;;;;;;18.88;100.00;101256.97;4997584;28;20062;-50
2022/06/28 03:57:27;;;;;;;9.88;6.93;;;;;;;18.86;100.00;101247.38;5000287;28;20410;-50
2022/06/28 03:59:56;;;;;;;6.22;5.65;;;;;;;18.81;100.00;101250.44;4988829;28;20539;-54
2022/06/28 04:02:23;;;;;;;7.07;5.88;;;;;;;18.80;100.00;101235.41;4982842;28;20054;-51
2022/06/28 04:04:50;;;;;;;6.65;5.93;;;;;;;18.83;100.00;101229.00;4984557;28;20430;-49
2022/06/28 04:07:18;;;;;;;6.40;5.68;;;;;;;18.81;100.00;101223.78;4990169;28;20433;-53
2022/06/28 04:09:45;;;;;;;7.65;5.95;;;;;;;18.79;100.00;101220.41;4986724;28;20054;-50
2022/06/28 04:12:12;;;;;;;6.63;5.63;;;;;;;18.74;100.00;101213.75;4992505;28;20050;-54
2022/06/28 04:14:39;;;;;;;6.32;5.72;;;;;;;18.70;100.00;101215.84;4989810;28;20056;-49
2022/06/28 04:17:06;;;;;;;8.98;6.00;;;;;;;18.66;100.00;101212.53;4991585;28;20066;-52
2022/06/28 04:19:33;;;;;;;7.10;5.80;;;;;;;18.65;100.00;101208.19;4994767;28;20058;-50
2022/06/28 04:22:00;;;;;;;6.18;5.68;;;;;;;18.61;100.00;101209.41;4989716;28;20049;-52
2022/06/28 04:24:28;;;;;;;10.38;6.15;;;;;;;18.55;100.00;101217.06;4989769;28;20050;-53
2022/06/28 04:26:55;;;;;;;6.43;5.50;;;;;;;18.54;100.00;101200.22;4992003;28;20062;-51
2022/06/28 04:29:22;;;;;;;7.10;5.80;;;;;;;18.52;100.00;101191.53;4995303;28;20058;-53
2022/06/28 04:31:49;;;;;;;8.52;5.47;;;;;;;18.46;100.00;101186.69;4992721;28;20053;-49
2022/06/28 04:34:16;;;;;;;9.13;6.18;;;;;;;18.47;100.00;101185.72;4989142;28;20062;-51
2022/06/28 04:36:43;;;;;;;7.18;6.13;;;;;;;18.49;100.00;101183.75;4985433;28;20051;-51
2022/06/28 04:39:10;;;;;;;7.63;5.88;;;;;;;18.46;100.00;101186.69;4983142;28;20050;-50
2022/06/28 04:41:44;;;;;;;7.18;6.05;;;;;;;18.35;100.00;101189.41;4986664;28;20042;-50
2022/06/28 04:44:11;;;;;;;5.40;4.88;;;;;;;18.32;100.00;101189.66;4988763;28;21149;-53
2022/06/28 04:46:38;;;;;;;5.95;5.32;;;;;;;18.25;100.00;101194.66;4991743;28;20049;-54
2022/06/28 04:49:07;;;;;;;6.05;5.45;;;;;;;18.21;100.00;101187.88;4989513;28;20054;-55
2022/06/28 04:51:35;;;;;;;6.65;5.35;;;;;;;18.24;100.00;101195.63;5000703;28;20302;-52
2022/06/28 04:54:02;;;;;;;6.07;5.40;;;;;;;18.22;100.00;101198.41;5002569;28;20663;-54
2022/06/28 04:56:29;;;;;;;8.60;5.85;;;;;;;18.18;100.00;101188.97;4998394;28;20061;-51
2022/06/28 04:58:56;;;;;;;6.88;5.63;;;;;;;18.20;100.00;101188.84;4998697;28;20502;-51
2022/06/28 05:01:23;;;;;;;5.47;4.97;;;;;;;18.25;100.00;101180.47;4994463;28;20652;-49
2022/06/28 05:03:51;;;;;;;4.95;4.50;;;;;;;18.31;100.00;101178.16;4996981;28;20054;-51
2022/06/28 05:06:18;;;;;;;7.22;5.45;;;;;;;18.29;100.00;101177.44;4996014;28;20518;-49
2022/06/28 05:08:53;;;;;;;6.00;5.40;;;;;;;18.25;100.00;101183.16;4996756;28;20046;-50
2022/06/28 05:11:38;;;;;;;6.50;5.55;;;;;;;18.20;100.00;101178.19;4985976;28;20568;-53
2022/06/28 05:14:06;;;;;;;6.22;4.55;;;;;;;18.15;100.00;101191.91;5001200;28;20129;-50
2022/06/28 05:16:33;;;;;;;12.10;5.50;;;;;;;18.17;100.00;101197.09;4997799;28;20455;-53
2022/06/28 05:19:00;;;;;;;7.97;5.63;;;;;;;18.17;100.00;101197.09;4992872;28;20074;-50
2022/06/28 05:21:28;;;;;;;5.78;5.28;;;;;;;18.17;100.00;101195.28;4995660;28;20080;-52
2022/06/28 05:23:55;;;;;;;8.45;5.18;;;;;;;18.10;100.00;101188.78;4997981;28;20198;-52
2022/06/28 05:26:24;;;;;;;6.95;4.80;;;;;;;18.11;100.00;101193.13;5005190;28;20053;-49
2022/06/28 05:28:51;;;;;;;7.65;6.20;;;;;;;18.12;100.00;101186.81;4995557;28;20141;-52
2022/06/28 05:31:18;;;;;;;6.22;5.63;;;;;;;18.09;100.00;101196.88;4991635;28;20054;-51
2022/06/28 05:33:45;;;;;;;6.32;5.72;;;;;;;18.16;100.00;101188.25;5001173;28;20050;-50
2022/06/28 05:36:13;;;;;;;6.40;5.80;;;;;;;18.12;100.00;101185.97;4989654;28;20115;-51
2022/06/28 05:38:40;;;;;;;7.88;6.10;;;;;;;18.12;100.00;101193.97;4994127;28;20057;-50
2022/06/28 05:41:09;;;;;;;8.07;5.40;;;;;;;18.13;100.00;101192.97;5002704;28;20397;-50
2022/06/28 05:43:36;;;;;;;6.32;5.72;;;;;;;18.10;100.00;101196.75;4990483;28;20043;-49
2022/06/28 05:46:03;;;;;;;5.70;5.20;;;;;;;18.04;100.00;101207.06;4987708;28;20051;-49
2022/06/28 05:48:30;;;;;;;7.32;5.28;;;;;;;17.99;99.84;101202.09;4984677;28;20597;-51
2022/06/28 05:50:58;;;;;;;6.45;5.85;;;;;;;17.93;99.04;101213.25;4989106;28;20054;-52
2022/06/28 05:53:25;;;;;;;5.30;4.28;;;;;;;17.95;98.74;101214.81;5007903;28;20052;-50
2022/06/28 05:55:52;;;;;;;7.03;4.28;;;;;;;17.90;98.83;101211.69;4988952;28;20050;-50
2022/06/28 05:58:19;;;;;;;4.90;4.40;;;;;;;17.98;97.84;101218.22;5001745;28;20050;-51
2022/06/28 06:00:47;;;;;;;4.75;4.32;;;;;;;17.99;97.32;101212.75;4998834;28;20389;-53
2022/06/28 06:03:15;;;;;;;5.88;4.55;;;;;;;17.98;95.82;101210.22;4997233;28;20057;-50
2022/06/28 06:05:42;;;;;;;4.40;3.70;;;;;;;17.96;95.26;101207.66;4992906;28;20450;-52
2022/06/28 06:08:09;;;;;;;3.95;3.65;;;;;;;17.93;95.29;101215.94;5001683;28;20057;-51
2022/06/28 06:10:37;;;;;;;6.63;3.80;;;;;;;18.00;94.89;101219.78;5000319;28;20050;-52
2022/06/28 06:13:04;;;;;;;4.05;3.63;;;;;;;17.99;94.06;101211.91;4988533;28;20061;-51
2022/06/28 06:15:32;;;;;;;5.28;3.42;;;;;;;18.04;93.97;101215.03;4992562;28;20050;-49
2022/06/28 06:17:59;;;;;;;4.05;3.05;;;;;;;18.11;93.35;101205.59;4992993;28;20563;-51
2022/06/28 06:20:26;;;;;;;3.45;3.15;;;;;;;18.16;92.66;101211.41;4998159;28;20045;-55
2022/06/28 06:22:53;;;;;;;3.95;3.42;;;;;;;18.17;92.23;101203.25;4989858;28;20050;-50
2022/06/28 06:25:20;;;;;;;6.95;3.15;;;;;;;18.16;91.39;101206.06;4988683;28;20061;-51
2022/06/28 06:27:47;;;;;;;5.15;3.75;;;;;;;18.27;91.38;101207.84;4988377;28;20062;-49
2022/06/28 06:30:15;;;;;;;3.20;2.85;;;;;;;18.36;90.96;101217.75;4995124;28;20700;-51
2022/06/28 06:32:42;;;;;;;4.20;3.40;;;;;;;18.54;89.14;101216.22;4990265;28;20043;-50
2022/06/28 06:35:10;;;;;;;5.82;3.20;;;;;;;18.67;88.30;101211.56;4986686;28;20054;-52
2022/06/28 06:37:37;;;;;;;3.28;2.63;;;;;;;18.81;86.86;101229.09;4988734;28;20058;-50
2022/06/28 06:40:05;;;;;;;4.75;3.10;;;;;;;18.91;86.48;101224.72;4983827;28;20065;-52
2022/06/28 06:42:32;;;;;;;5.28;2.90;;;;;;;19.10;84.66;101233.81;5001378;28;20045;-53
2022/06/28 06:45:00;;;;;;;5.70;3.35;;;;;;;19.07;83.47;101242.06;4991823;28;20054;-50
2022/06/28 06:47:28;;;;;;;5.35;3.30;;;;;;;19.14;83.19;101241.44;4993904;28;20057;-50
2022/06/28 06:49:55;;;;;;;3.58;2.70;;;;;;;19.25;83.45;101253.84;4981466;28;20916;-49
2022/06/28 06:52:22;;;;;;;5.80;2.70;;;;;;;19.34;82.92;101252.22;4983309;28;20061;-50
2022/06/28 06:54:50;;;;;;;7.10;3.63;;;;;;;19.28;80.99;101255.44;4985439;28;20637;-47
2022/06/28 06:57:21;;;;;;;3.42;3.00;;;;;;;19.29;80.72;101263.28;4980025;28;20165;-56
2022/06/28 06:59:48;;;;;;;6.78;2.70;;;;;;;19.34;81.02;101270.91;4986551;28;20062;-58
2022/06/28 07:02:15;;;;;;;3.97;2.65;;;;;;;19.58;80.54;101274.13;4990626;28;20869;-58
2022/06/28 07:04:43;;;;;;;7.80;3.08;;;;;;;19.77;78.68;101276.09;4986111;28;20058;-59
2022/06/28 07:07:10;;;;;;;6.65;3.50;;;;;;;19.94;77.39;101282.59;4988372;28;20057;-58
2022/06/28 07:09:37;;;;;;;4.90;2.97;;;;;;;20.08;77.04;101289.41;4988617;28;20054;-56
2022/06/28 07:12:05;;;;;;;5.85;3.05;;;;;;;20.02;76.46;101284.63;4990628;28;20072;-52
2022/06/28 07:14:32;;;;;;;4.65;2.30;;;;;;;20.06;77.16;101286.03;4986712;28;20062;-58
2022/06/28 07:16:59;;;;;;;3.45;2.40;;;;;;;20.19;76.02;101292.00;4983224;28;20058;-60
2022/06/28 07:19:27;;;;;;;3.67;2.28;;;;;;;20.14;75.48;101302.25;4990361;28;20434;-59
2022/06/28 07:21:54;;;;;;;5.47;2.50;;;;;;;19.93;75.55;101296.97;4982267;28;20047;-60
2022/06/28 07:24:21;;;;;;;3.38;1.90;;;;;;;20.07;76.09;101295.75;4987428;28;20046;-58
2022/06/28 07:26:49;;;;;;;2.78;1.80;;;;;;;20.27;74.70;101302.00;4983370;28;20054;-58
2022/06/28 07:29:16;;;;;;;10.02;2.38;;;;;;;20.48;73.50;101316.97;4987451;28;20579;-59
2022/06/28 07:31:44;;;;;;;4.40;2.10;;;;;;;20.52;72.10;101316.72;4990974;28;20054;-56
2022/06/28 07:34:12;;;;;;;6.75;2.10;;;;;;;20.63;71.89;101322.81;4982410;28;20055;-58
2022/06/28 07:36:40;;;;;;;6.15;1.95;;;;;;;20.97;70.84;101320.56;4986679;28;20072;-58
2022/06/28 07:39:07;;;;;;;4.22;1.73;;;;;;;21.14;69.62;101327.03;4984482;28;20573;-55
2022/06/28 07:41:34;;;;;;;1.65;1.50;;;;;;;21.23;69.67;101334.22;4983032;28;20054;-59
2022/06/28 07:44:04;;;;;;;5.20;1.65;;;;;;;21.27;68.99;101331.28;4987051;28;20049;-58
2022/06/28 07:46:31;;;;;;;3.15;1.60;;;;;;;21.22;69.81;101342.41;4986201;28;20046;-58
2022/06/28 07:48:59;;;;;;;3.72;1.60;;;;;;;21.41;69.12;101347.78;4988219;28;20062;-57
2022/06/28 07:54:12;;;;;;;3.13;1.40;;;;;;;21.69;66.96;101342.50;4994828;28;20069;-58
2022/06/28 07:56:39;;;;;;;5.30;1.67;;;;;;;21.85;67.63;101347.25;4997163;28;20050;-57
2022/06/28 07:59:06;;;;;;;1.40;1.30;;;;;;;22.05;65.85;101348.84;4994586;28;20070;-54
2022/06/28 08:01:33;;;;;;;5.10;1.50;;;;;;;22.30;64.91;101357.28;4989807;28;20078;-53
2022/06/28 08:04:00;;;;;;;3.42;1.70;;;;;;;22.52;63.25;101367.59;4995622;28;20045;-54
2022/06/28 08:06:28;;;;;;;2.97;1.30;;;;;;;22.41;63.53;101367.78;5001944;23;20591;-45
2022/06/28 08:08:55;;;;;;;2.95;1.70;;;;;;;22.44;63.11;101380.91;4995101;28;20056;-52
2022/06/28 08:11:22;;;;;;;2.05;1.15;;;;;;;22.45;62.95;101374.53;4994428;28;20050;-51
2022/06/28 08:13:50;;;;;;;3.80;1.15;;;;;;;22.39;62.77;101370.63;4994869;28;20061;-50
2022/06/28 08:16:17;;;;;;;1.65;1.50;;;;;;;22.33;62.90;101378.41;4977329;28;20066;-57
2022/06/28 08:18:45;;;;;;;3.13;1.50;;;;;;;22.16;63.15;101375.53;4966708;28;20051;-54
2022/06/28 08:21:19;;;;;;;3.05;1.45;;;;;;;22.32;62.72;101382.09;4967465;28;20385;-53
2022/06/28 08:23:46;;;;;;;8.27;1.38;;;;;;;22.53;61.90;101382.69;4977279;28;20061;-54
2022/06/28 08:26:13;;;;;;;3.72;1.50;;;;;;;22.39;62.31;101381.34;4967584;28;20057;-55
2022/06/28 08:28:40;;;;;;;1.65;1.25;;;;;;;22.75;62.19;101384.97;4977604;28;20066;-53
2022/06/28 08:31:07;;;;;;;6.70;1.30;;;;;;;22.99;61.65;101388.94;4972074;28;20064;-56
2022/06/28 08:33:35;;;;;;;3.55;1.23;;;;;;;23.15;61.79;101394.47;4968238;28;20057;-55
2022/06/28 08:36:02;;;;;;;3.25;1.35;;;;;;;23.34;61.36;101387.25;4963872;28;20586;-57
2022/06/28 08:38:29;;;;;;;4.05;1.52;;;;;;;23.37;59.04;101390.47;4963308;28;20051;-56
2022/06/28 08:40:57;;;;;;;4.45;1.48;;;;;;;23.26;59.14;101396.06;4961948;28;20057;-56
2022/06/28 08:43:25;;;;;;;6.22;1.30;;;;;;;23.34;58.90;101396.16;4974934;28;21624;-57
2022/06/28 08:45:53;;;;;;;3.47;1.23;;;;;;;23.43;59.10;101397.91;4951775;28;20065;-57
2022/06/28 08:48:30;;;;;;;1.50;1.00;;;;;;;23.70;58.56;101393.44;4956256;28;20050;-54
2022/06/28 08:50:58;;;;;;;2.45;0.93;;;;;;;24.14;56.72;101399.59;4958425;28;20067;-56
2022/06/28 08:53:26;;;;;;;3.97;1.20;;;;;;;24.21;55.97;101400.63;4959658;28;20051;-55
2022/06/28 08:55:54;;;;;;;3.05;1.10;;;;;;;24.18;55.21;101403.66;4974846;28;20066;-56
2022/06/28 08:58:21;;;;;;;1.95;1.00;;;;;;;24.17;55.49;101407.31;4959861;28;20151;-55
2022/06/28 09:00:48;;;;;;;2.65;0.95;;;;;;;24.08;54.91;101416.34;4957995;28;20427;-55
2022/06/28 09:03:16;;;;;;;5.03;0.93;;;;;;;24.12;55.51;101417.72;4959637;28;20072;-54
2022/06/28 09:05:43;;;;;;;1.80;1.10;;;;;;;24.26;54.40;101419.81;4962062;28;20054;-53
2022/06/28 09:08:11;;;;;;;3.13;1.08;;;;;;;24.32;53.40;101417.53;4966443;28;20081;-57
2022/06/28 09:10:38;;;;;;;2.15;0.82;;;;;;;24.32;53.00;101422.91;4964652;28;20050;-57
2022/06/28 09:13:17;;;;;;;1.85;0.95;;;;;;;24.27;52.97;101426.03;4959789;28;20066;-57
2022/06/28 09:15:46;;;;;;;1.15;0.80;;;;;;;24.24;53.03;101421.00;4958618;28;20138;-56
2022/06/28 09:18:13;;;;;;;2.58;1.00;;;;;;;24.27;53.69;101420.66;4960697;28;20063;-56
2022/06/28 09:20:40;;;;;;;1.85;1.10;;;;;;;24.32;53.96;101414.81;4963462;28;20058;-53
2022/06/28 09:23:30;;;;;;;1.88;1.13;;;;;;;24.64;53.32;101417.69;4965568;28;20062;-53
2022/06/28 09:26:09;;;;;;;1.00;0.80;;;;;;;24.91;52.71;101413.88;4963757;28;20061;-51
2022/06/28 09:28:42;;;;;;;1.25;0.82;;;;;;;25.16;51.41;101422.03;4969854;28;20058;-55
2022/06/28 09:31:19;;;;;;;2.55;1.30;;;;;;;24.62;51.36;101418.84;4960752;28;20071;-52
2022/06/28 09:34:04;;;;;;;4.22;0.90;;;;;;;24.94;52.15;101418.09;4965113;28;20538;-50
2022/06/28 09:36:39;;;;;;;5.78;1.13;;;;;;;25.04;50.29;101424.19;4968561;28;20047;-46
2022/06/28 09:39:10;;;;;;;2.63;1.08;;;;;;;24.89;51.01;101423.13;4971505;28;20218;-45
2022/06/28 09:41:37;;;;;;;2.60;0.95;;;;;;;24.79;50.98;101414.34;4961154;28;20483;-54
2022/06/28 09:44:27;;;;;;;5.72;0.85;;;;;;;24.86;51.08;101423.47;4964826;28;20363;-55
2022/06/28 09:46:57;;;;;;;2.97;1.20;;;;;;;24.95;50.41;101419.78;4962437;28;20064;-55
2022/06/28 09:49:32;;;;;;;4.07;1.23;;;;;;;24.95;50.15;101412.56;4965000;28;20195;-55
2022/06/28 09:52:01;;;;;;;3.35;0.90;;;;;;;25.13;49.63;101417.00;4962803;28;20077;-54
2022/06/28 09:54:29;;;;;;;2.45;1.02;;;;;;;25.18;50.12;101410.09;4958014;28;20054;-56
2022/06/28 09:56:57;;;;;;;1.10;0.70;;;;;;;25.42;49.26;101408.41;4956083;28;20066;-55
2022/06/28 09:59:25;;;;;;;5.45;1.02;;;;;;;25.42;48.13;101411.94;4963654;28;20051;-55
2022/06/28 10:01:54;;;;;;;2.50;0.75;;;;;;;25.25;47.58;101412.94;4963447;28;20046;-55
2022/06/28 10:04:23;;;;;;;4.35;1.30;;;;;;;24.81;48.94;101407.81;4969223;28;20101;-58
2022/06/28 10:06:51;;;;;;;3.50;0.80;;;;;;;24.71;49.15;101407.91;4973759;28;20055;-58
2022/06/28 10:09:19;;;;;;;3.03;1.40;;;;;;;24.54;49.94;101408.03;4966041;28;20051;-57
2022/06/28 10:17:48;;;;;;;1.85;1.33;;;;;;;25.80;47.54;101393.41;4966498;28;20062;-59
2022/06/28 10:20:27;;;;;;;0.70;0.60;;;;;;;25.84;46.64;101397.44;4964364;28;20427;-56
2022/06/28 10:23:49;;;;;;;4.00;1.00;;;;;;;25.19;47.57;101401.00;4965165;28;20051;-53
2022/06/28 10:26:16;;;;;;;3.03;0.85;;;;;;;25.07;47.74;101406.84;4960350;28;20054;-56
2022/06/28 10:28:45;;;;;;;1.73;0.80;;;;;;;24.72;47.84;101404.25;4954444;28;20058;-57
2022/06/28 10:31:22;;;;;;;0.75;0.70;;;;;;;24.73;48.83;101400.53;4958045;28;20093;-56
2022/06/28 10:34:23;;;;;;;7.40;1.15;;;;;;;24.88;48.75;101400.75;4960224;28;20520;-55
2022/06/28 10:36:53;;;;;;;1.55;0.65;;;;;;;24.73;47.74;101391.63;4958848;28;20218;-52
2022/06/28 10:39:29;;;;;;;1.05;0.77;;;;;;;24.88;47.98;101391.81;4974263;28;20062;-57
2022/06/28 10:41:59;;;;;;;1.85;0.90;;;;;;;25.05;47.99;101401.63;4972850;28;20511;-55
2022/06/28 10:44:30;;;;;;;5.43;1.30;;;;;;;25.26;47.48;101395.75;4964043;28;20054;-50
2022/06/28 10:47:00;;;;;;;4.50;1.00;;;;;;;25.63;46.57;101392.56;4963962;28;20132;-49
2022/06/28 10:49:43;;;;;;;2.75;1.00;;;;;;;26.30;46.16;101381.47;4962143;28;20538;-49
2022/06/28 10:52:10;;;;;;;7.07;1.40;;;;;;;26.70;45.29;101388.56;4971110;28;20046;-50
2022/06/28 10:54:38;;;;;;;0.80;0.80;;;;;;;26.89;44.56;101398.09;4964082;28;20043;-49
2022/06/28 10:57:24;;;;;;;5.28;1.05;;;;;;;27.15;43.84;101391.50;4966170;28;20047;-52
2022/06/28 10:59:54;;;;;;;1.85;0.90;;;;;;;26.94;42.30;101386.75;4969528;28;20133;-53
2022/06/28 11:02:22;;;;;;;4.00;0.90;;;;;;;26.48;43.40;101395.59;4964352;28;20050;-55
2022/06/28 11:05:08;;;;;;;3.75;1.10;;;;;;;25.86;44.20;101391.91;4964356;28;20062;-55
2022/06/28 11:07:37;;;;;;;3.47;0.80;;;;;;;25.63;45.12;101387.19;4969866;28;20054;-51
2022/06/28 11:10:09;;;;;;;1.67;0.90;;;;;;;25.35;44.57;101389.38;4966721;28;20065;-53
2022/06/28 11:12:38;;;;;;;3.05;0.85;;;;;;;25.23;44.46;101393.41;4968015;28;20054;-55
2022/06/28 11:15:08;;;;;;;2.50;1.27;;;;;;;25.41;44.12;101386.00;4964915;28;20465;-53
2022/06/28 11:17:43;;;;;;;1.75;0.85;;;;;;;25.79;43.32;101385.50;4969739;28;20055;-56
2022/06/28 11:20:15;;;;;;;2.58;1.30;;;;;;;26.40;43.07;101389.38;4963810;28;20090;-54
2022/06/28 11:22:45;;;;;;;4.60;0.70;;;;;;;26.70;42.47;101383.16;4984841;28;20066;-53
2022/06/28 11:25:14;;;;;;;1.90;0.60;;;;;;;26.65;42.62;101385.53;4959829;28;20403;-56
2022/06/28 11:27:56;;;;;;;1.63;0.77;;;;;;;26.85;42.96;101388.66;4968950;28;20403;-53
2022/06/28 11:30:29;;;;;;;3.22;0.80;;;;;;;26.92;41.82;101394.16;4975021;28;20046;-57
2022/06/28 11:32:57;;;;;;;2.92;0.85;;;;;;;26.45;40.38;101398.66;4968398;28;20526;-48
2022/06/28 11:35:27;;;;;;;1.40;0.55;;;;;;;25.94;42.02;101387.31;4965115;28;20676;-47
2022/06/28 11:38:05;;;;;;;5.85;0.85;;;;;;;25.78;42.68;101390.03;4971792;28;20055;-48
2022/06/28 11:40:47;;;;;;;7.88;1.00;;;;;;;25.80;43.44;101384.47;4977788;28;20050;-47
2022/06/28 11:43:18;;;;;;;3.45;0.90;;;;;;;25.83;43.92;101390.38;4977331;28;20066;-49
2022/06/28 11:45:50;;;;;;;3.13;0.75;;;;;;;25.80;43.33;101390.69;4964923;28;20039;-49